createdAt,value
2018-04-14T00:00:10.393Z,8.60
2018-04-14T00:02:40.103Z,8.50
2018-04-14T00:05:08.889Z,8.50
2018-04-14T00:07:38.069Z,8.40
2018-04-14T00:10:07.340Z,8.40
2018-04-14T00:12:37.072Z,8.40
2018-04-14T00:15:06.110Z,8.30
2018-04-14T00:17:34.886Z,8.40
2018-04-14T00:20:03.504Z,8.40
2018-04-14T00:22:32.609Z,8.40
2018-04-14T00:25:00.920Z,8.40
2018-04-14T00:27:29.287Z,8.50
2018-04-14T00:29:58.429Z,8.40
2018-04-14T00:32:27.673Z,8.40
2018-04-14T00:34:55.972Z,8.40
2018-04-14T00:37:25.074Z,8.40
2018-04-14T00:39:53.388Z,8.40
2018-04-14T00:42:21.687Z,8.40
2018-04-14T00:44:50.243Z,8.40
2018-04-14T00:47:18.958Z,8.40
2018-04-14T00:49:47.590Z,8.40
2018-04-14T00:52:16.145Z,8.50
2018-04-14T00:54:45.544Z,8.50
2018-04-14T00:57:14.450Z,8.40
2018-04-14T00:59:43.123Z,8.50
2018-04-14T01:02:12.515Z,8.40
2018-04-14T01:04:42.132Z,8.40
2018-04-14T01:07:11.813Z,8.40
2018-04-14T01:09:40.431Z,8.40
2018-04-14T01:12:09.153Z,8.40
2018-04-14T01:14:38.391Z,8.40
2018-04-14T01:17:08.047Z,8.50
2018-04-14T01:19:37.421Z,8.40
2018-04-14T01:22:06.533Z,8.50
2018-04-14T01:24:35.616Z,8.50
2018-04-14T01:27:04.263Z,8.50
2018-04-14T01:29:32.794Z,8.50
2018-04-14T01:32:01.282Z,8.40
2018-04-14T01:34:30.549Z,8.40
2018-04-14T01:36:58.929Z,8.40
2018-04-14T01:39:28.032Z,8.50
2018-04-14T01:41:56.365Z,8.40
2018-04-14T01:44:24.722Z,8.40
2018-04-14T01:46:53.016Z,8.40
2018-04-14T01:49:21.395Z,8.30
2018-04-14T01:51:49.701Z,8.30
2018-04-14T01:54:18.217Z,8.20
2018-04-14T01:56:46.920Z,8.20
2018-04-14T01:59:16.245Z,8.30
2018-04-14T02:01:44.772Z,8.30
2018-04-14T02:04:13.376Z,8.20
2018-04-14T02:06:41.878Z,8.20
2018-04-14T02:09:11.089Z,8.20
2018-04-14T02:11:41.017Z,8.20
2018-04-14T02:14:10.046Z,8.20
2018-04-14T02:16:38.854Z,8.20
2018-04-14T02:19:08.618Z,8.20
2018-04-14T02:21:38.609Z,8.20
2018-04-14T02:24:07.787Z,8.20
2018-04-14T02:26:38.052Z,8.20
2018-04-14T02:29:07.310Z,8.30
2018-04-14T02:31:37.299Z,8.30
2018-04-14T02:34:06.210Z,8.20
2018-04-14T02:36:35.120Z,8.20
2018-04-14T02:39:03.620Z,8.10
2018-04-14T02:41:32.436Z,8.10
2018-04-14T02:44:00.893Z,8.00
2018-04-14T02:46:29.483Z,8.00
2018-04-14T02:48:57.941Z,7.90
2018-04-14T02:51:27.049Z,7.90
2018-04-14T02:53:55.417Z,7.80
2018-04-14T02:56:25.254Z,7.80
2018-04-14T02:58:53.610Z,7.80
2018-04-14T03:01:21.905Z,7.70
2018-04-14T03:03:50.242Z,7.70
2018-04-14T03:06:19.723Z,7.70
2018-04-14T03:08:48.273Z,7.70
2018-04-14T03:11:16.893Z,7.70
2018-04-14T03:13:45.354Z,7.70
2018-04-14T03:16:14.725Z,7.80
2018-04-14T03:18:44.002Z,7.70
2018-04-14T03:21:12.659Z,7.70
2018-04-14T03:23:41.374Z,7.80
2018-04-14T03:26:10.797Z,7.90
2018-04-14T03:28:39.886Z,7.90
2018-04-14T03:31:08.710Z,7.90
2018-04-14T03:33:37.727Z,7.90
2018-04-14T03:36:06.798Z,7.80
2018-04-14T03:38:36.242Z,7.80
2018-04-14T03:41:04.966Z,7.70
2018-04-14T03:43:33.463Z,7.60
2018-04-14T03:46:02.898Z,7.50
2018-04-14T03:48:31.254Z,7.40
2018-04-14T03:50:59.553Z,7.40
2018-04-14T03:53:27.854Z,7.30
2018-04-14T03:55:56.159Z,7.30
2018-04-14T03:58:24.475Z,7.40
2018-04-14T04:00:52.833Z,7.40
2018-04-14T04:03:21.133Z,7.30
2018-04-14T04:05:49.868Z,7.20
2018-04-14T04:08:19.203Z,7.00
2018-04-14T04:10:47.779Z,7.00
2018-04-14T04:13:16.237Z,7.00
2018-04-14T04:15:44.753Z,6.90
2018-04-14T04:18:13.545Z,6.80
2018-04-14T04:20:57.558Z,6.80
2018-04-14T04:23:38.057Z,6.70
2018-04-14T04:26:08.074Z,6.60
2018-04-14T04:28:37.791Z,6.60
2018-04-14T04:31:07.265Z,6.50
2018-04-14T04:33:36.260Z,6.60
2018-04-14T04:36:05.618Z,6.60
2018-04-14T04:38:34.157Z,6.50
2018-04-14T04:41:02.549Z,6.50
2018-04-14T04:43:30.704Z,6.40
2018-04-14T04:45:59.858Z,6.30
2018-04-14T04:48:28.310Z,6.30
2018-04-14T04:50:56.484Z,6.20
2018-04-14T04:53:24.564Z,6.30
2018-04-14T04:55:52.684Z,6.30
2018-04-14T04:58:21.528Z,6.20
2018-04-14T05:00:49.640Z,6.10
2018-04-14T05:03:18.117Z,6.20
2018-04-14T05:05:46.949Z,6.30
2018-04-14T05:08:15.467Z,6.30
2018-04-14T05:10:44.005Z,6.30
2018-04-14T05:13:12.574Z,6.20
2018-04-14T05:15:41.440Z,6.20
2018-04-14T05:18:10.096Z,6.30
2018-04-14T05:20:39.052Z,6.30
2018-04-14T05:23:08.711Z,6.30
2018-04-14T05:25:39.134Z,6.40
2018-04-14T05:28:08.051Z,6.40
2018-04-14T05:30:37.385Z,6.40
2018-04-14T05:33:06.300Z,6.50
2018-04-14T05:35:35.481Z,6.60
2018-04-14T05:38:04.076Z,6.80
2018-04-14T05:40:33.027Z,7.20
2018-04-14T05:43:01.357Z,7.20
2018-04-14T05:45:29.489Z,7.40
2018-04-14T05:47:57.566Z,7.60
2018-04-14T05:50:25.693Z,7.80
2018-04-14T05:52:54.521Z,8.00
2018-04-14T05:55:22.593Z,7.90
2018-04-14T05:57:52.402Z,8.20
2018-04-14T06:00:20.465Z,8.20
2018-04-14T06:02:48.565Z,8.50
2018-04-14T06:05:17.686Z,8.70
2018-04-14T06:07:46.385Z,8.70
2018-04-14T06:10:15.142Z,8.80
2018-04-14T06:12:43.511Z,8.90
2018-04-14T06:15:12.245Z,9.00
2018-04-14T06:17:40.876Z,9.10
2018-04-14T06:20:09.600Z,9.10
2018-04-14T06:22:38.220Z,9.20
2018-04-14T06:25:06.793Z,9.30
2018-04-14T06:27:35.243Z,9.30
2018-04-14T06:30:03.682Z,9.40
2018-04-14T06:32:31.948Z,9.50
2018-04-14T06:35:00.139Z,9.60
2018-04-14T06:37:29.013Z,9.80
2018-04-14T06:39:57.144Z,9.80
2018-04-14T06:42:26.008Z,10.00
2018-04-14T06:44:54.137Z,10.00
2018-04-14T06:47:22.241Z,10.00
2018-04-14T06:49:50.563Z,10.10
2018-04-14T06:52:18.734Z,10.10
2018-04-14T06:54:47.171Z,10.10
2018-04-14T06:57:15.363Z,10.10
2018-04-14T06:59:44.498Z,10.20
2018-04-14T07:02:12.974Z,10.20
2018-04-14T07:04:41.591Z,10.20
2018-04-14T07:07:10.303Z,10.30
2018-04-14T07:09:39.645Z,10.40
2018-04-14T07:12:09.061Z,10.40
2018-04-14T07:14:38.759Z,10.60
2018-04-14T07:17:07.389Z,10.60
2018-04-14T07:19:37.257Z,10.80
2018-04-14T07:22:06.960Z,10.80
2018-04-14T07:24:35.604Z,10.90
2018-04-14T07:27:03.801Z,11.00
2018-04-14T07:29:32.013Z,11.00
2018-04-14T07:32:00.395Z,11.10
2018-04-14T07:34:28.701Z,11.30
2018-04-14T07:36:56.789Z,11.60
2018-04-14T07:39:24.888Z,11.80
2018-04-14T07:41:53.793Z,11.90
2018-04-14T07:44:22.644Z,11.90
2018-04-14T07:46:50.821Z,11.90
2018-04-14T07:49:18.913Z,12.00
2018-04-14T07:51:46.999Z,12.00
2018-04-14T07:54:15.482Z,12.10
2018-04-14T07:56:43.819Z,12.20
2018-04-14T07:59:13.130Z,12.10
2018-04-14T08:01:41.546Z,12.10
2018-04-14T08:04:10.204Z,12.10
2018-04-14T08:06:38.885Z,12.10
2018-04-14T08:09:08.415Z,12.30
2018-04-14T08:11:37.054Z,12.30
2018-04-14T08:14:05.661Z,12.40
2018-04-14T08:16:34.961Z,12.50
2018-04-14T08:19:03.282Z,12.50
2018-04-14T08:21:31.398Z,12.50
2018-04-14T08:23:59.469Z,12.60
2018-04-14T08:26:27.575Z,12.50
2018-04-14T08:28:55.682Z,12.60
2018-04-14T08:31:23.825Z,12.60
2018-04-14T08:33:51.905Z,12.90
2018-04-14T08:36:20.291Z,12.90
2018-04-14T08:38:48.420Z,12.90
2018-04-14T08:41:16.576Z,13.00
2018-04-14T08:43:44.842Z,13.00
2018-04-14T08:46:13.085Z,13.00
2018-04-14T08:48:41.723Z,13.10
2018-04-14T08:51:10.406Z,12.60
2018-04-14T08:53:39.257Z,12.30
2018-04-14T08:56:07.722Z,12.20
2018-04-14T08:58:37.353Z,11.90
2018-04-14T09:01:06.808Z,11.90
2018-04-14T09:03:35.938Z,11.90
2018-04-14T09:06:04.255Z,12.00
2018-04-14T09:08:33.234Z,12.20
2018-04-14T09:11:02.498Z,12.50
2018-04-14T09:13:30.711Z,12.40
2018-04-14T09:15:58.904Z,12.70
2018-04-14T09:18:27.998Z,13.30
2018-04-14T09:20:56.401Z,13.20
2018-04-14T09:23:25.551Z,13.50
2018-04-14T09:25:53.905Z,13.50
2018-04-14T09:28:23.001Z,13.20
2018-04-14T09:30:51.373Z,13.20
2018-04-14T09:33:19.924Z,13.30
2018-04-14T09:35:48.353Z,13.40
2018-04-14T09:38:16.962Z,13.50
2018-04-14T09:40:46.214Z,14.10
2018-04-14T09:43:15.361Z,14.20
2018-04-14T09:45:43.737Z,14.20
2018-04-14T09:48:12.431Z,14.40
2018-04-14T09:50:41.071Z,14.50
2018-04-14T09:53:09.716Z,14.60
2018-04-14T09:55:39.297Z,15.00
2018-04-14T09:58:07.989Z,15.00
2018-04-14T10:00:42.321Z,15.00
2018-04-14T10:03:16.622Z,15.10
2018-04-14T10:05:45.313Z,15.40
2018-04-14T10:08:13.806Z,15.60
2018-04-14T10:10:43.412Z,15.70
2018-04-14T10:13:11.995Z,15.70
2018-04-14T10:15:41.359Z,15.70
2018-04-14T10:18:10.350Z,15.70
2018-04-14T10:20:39.293Z,15.40
2018-04-14T10:23:08.188Z,15.40
2018-04-14T10:25:37.153Z,15.50
2018-04-14T10:28:06.759Z,16.00
2018-04-14T10:30:37.049Z,16.20
2018-04-14T10:33:06.903Z,16.60
2018-04-14T10:35:35.944Z,16.60
2018-04-14T10:38:04.586Z,16.90
2018-04-14T10:40:34.241Z,16.80
2018-04-14T10:43:03.172Z,17.00
2018-04-14T10:45:31.613Z,16.80
2018-04-14T10:48:00.036Z,16.80
2018-04-14T10:50:29.265Z,16.80
2018-04-14T10:52:57.621Z,16.70
2018-04-14T10:55:26.024Z,16.60
2018-04-14T10:57:54.353Z,16.30
2018-04-14T11:00:22.750Z,15.70
2018-04-14T11:02:52.137Z,15.40
2018-04-14T11:05:21.361Z,15.60
2018-04-14T11:07:50.473Z,16.10
2018-04-14T11:10:19.041Z,16.10
2018-04-14T11:12:47.451Z,16.30
2018-04-14T11:15:16.580Z,17.10
2018-04-14T11:17:45.364Z,17.10
2018-04-14T11:20:14.003Z,17.50
2018-04-14T11:22:43.510Z,17.70
2018-04-14T11:25:12.923Z,17.90
2018-04-14T11:27:41.563Z,17.80
2018-04-14T11:30:11.492Z,17.20
2018-04-14T11:32:40.331Z,17.20
2018-04-14T11:35:09.431Z,16.70
2018-04-14T11:37:38.200Z,17.00
2018-04-14T11:40:07.986Z,17.10
2018-04-14T11:42:38.004Z,16.50
2018-04-14T11:45:09.221Z,16.40
2018-04-14T11:47:38.934Z,16.20
2018-04-14T11:50:08.118Z,16.30
2018-04-14T11:52:37.225Z,16.50
2018-04-14T11:55:07.495Z,16.70
2018-04-14T11:57:37.349Z,16.60
2018-04-14T12:00:06.232Z,16.60
2018-04-14T12:02:35.046Z,16.60
2018-04-14T12:05:03.715Z,16.70
2018-04-14T12:07:32.194Z,16.90
2018-04-14T12:10:00.530Z,17.00
2018-04-14T12:12:29.051Z,17.30
2018-04-14T12:14:57.496Z,17.30
2018-04-14T12:17:25.839Z,17.20
2018-04-14T12:19:54.175Z,17.10
2018-04-14T12:22:22.560Z,17.30
2018-04-14T12:24:51.009Z,17.00
2018-04-14T12:27:19.610Z,16.90
2018-04-14T12:29:48.301Z,16.80
2018-04-14T12:32:17.199Z,17.00
2018-04-14T12:34:45.616Z,17.00
2018-04-14T12:37:14.153Z,17.00
2018-04-14T12:39:42.841Z,17.20
2018-04-14T12:42:11.392Z,17.30
2018-04-14T12:44:40.504Z,17.30
2018-04-14T12:47:10.256Z,17.50
2018-04-14T12:49:39.865Z,17.90
2018-04-14T12:52:09.104Z,17.90
2018-04-14T12:54:38.810Z,16.60
2018-04-14T12:57:07.778Z,16.50
2018-04-14T12:59:36.856Z,16.00
2018-04-14T13:02:06.680Z,15.90
2018-04-14T13:04:36.596Z,15.80
2018-04-14T13:07:05.882Z,15.80
2018-04-14T13:09:34.311Z,15.80
2018-04-14T13:12:03.144Z,15.80
2018-04-14T13:14:32.642Z,16.00
2018-04-14T13:17:01.119Z,16.00
2018-04-14T13:19:29.590Z,16.30
2018-04-14T13:21:58.703Z,16.40
2018-04-14T13:24:27.029Z,16.40
2018-04-14T13:26:56.126Z,16.70
2018-04-14T13:29:24.447Z,16.60
2018-04-14T13:31:52.905Z,16.80
2018-04-14T13:34:21.206Z,17.40
2018-04-14T13:36:50.309Z,17.80
2018-04-14T13:39:18.904Z,17.70
2018-04-14T13:41:47.452Z,18.20
2018-04-14T13:44:15.883Z,18.80
2018-04-14T13:46:44.317Z,19.40
2018-04-14T13:49:12.811Z,19.70
2018-04-14T13:51:41.457Z,19.10
2018-04-14T13:54:11.078Z,18.20
2018-04-14T13:56:39.796Z,18.10
2018-04-14T13:59:09.915Z,17.80
2018-04-14T14:01:39.131Z,17.80
2018-04-14T14:04:08.246Z,18.50
2018-04-14T14:06:37.953Z,18.90
2018-04-14T14:09:07.626Z,19.80
2018-04-14T14:11:36.910Z,19.60
2018-04-14T14:14:08.011Z,18.50
2018-04-14T14:16:37.381Z,18.50
2018-04-14T14:19:06.701Z,18.20
2018-04-14T14:21:37.172Z,17.90
2018-04-14T14:24:07.694Z,18.50
2018-04-14T14:26:37.592Z,19.30
2018-04-14T14:29:07.043Z,19.90
2018-04-14T14:31:38.458Z,18.70
2018-04-14T14:34:08.470Z,18.70
2018-04-14T14:36:37.500Z,19.00
2018-04-14T14:39:06.593Z,19.00
2018-04-14T14:41:35.507Z,18.40
2018-04-14T14:44:04.416Z,18.80
2018-04-14T14:46:32.836Z,18.00
2018-04-14T14:49:01.211Z,17.40
2018-04-14T14:51:29.615Z,16.70
2018-04-14T14:53:57.946Z,16.40
2018-04-14T14:56:27.068Z,15.90
2018-04-14T14:58:55.431Z,15.90
2018-04-14T15:01:23.808Z,15.90
2018-04-14T15:03:52.146Z,15.80
2018-04-14T15:06:20.897Z,15.70
2018-04-14T15:08:49.245Z,15.80
2018-04-14T15:11:18.091Z,15.70
2018-04-14T15:13:47.190Z,15.80
2018-04-14T15:16:15.925Z,16.30
2018-04-14T15:18:44.582Z,16.90
2018-04-14T15:21:13.342Z,17.00
2018-04-14T15:23:42.655Z,16.70
2018-04-14T15:26:12.001Z,16.60
2018-04-14T15:28:40.993Z,16.60
2018-04-14T15:31:09.849Z,16.50
2018-04-14T15:33:38.856Z,16.50
2018-04-14T15:36:08.055Z,16.40
2018-04-14T15:38:36.968Z,16.30
2018-04-14T15:41:05.658Z,16.10
2018-04-14T15:43:34.339Z,15.90
2018-04-14T15:46:02.796Z,15.80
2018-04-14T15:48:31.889Z,15.60
2018-04-14T15:51:00.978Z,15.50
2018-04-14T15:53:29.452Z,15.50
2018-04-14T15:55:57.763Z,15.50
2018-04-14T15:58:26.145Z,15.40
2018-04-14T16:00:54.445Z,15.50
2018-04-14T16:03:22.771Z,15.60
2018-04-14T16:05:51.136Z,15.60
2018-04-14T16:08:19.480Z,15.60
2018-04-14T16:10:48.323Z,15.70
2018-04-14T16:13:17.215Z,15.80
2018-04-14T16:15:46.032Z,15.80
2018-04-14T16:18:15.023Z,15.90
2018-04-14T16:20:43.658Z,16.00
2018-04-14T16:23:13.346Z,16.60
2018-04-14T16:25:42.574Z,16.60
2018-04-14T16:28:12.264Z,16.90
2018-04-14T16:30:41.572Z,16.90
2018-04-14T16:33:10.485Z,17.00
2018-04-14T16:35:43.472Z,17.10
2018-04-14T16:38:12.369Z,17.20
2018-04-14T16:40:41.764Z,17.40
2018-04-14T16:43:10.916Z,17.50
2018-04-14T16:45:40.277Z,17.80
2018-04-14T16:48:09.497Z,18.10
2018-04-14T16:50:40.232Z,18.50
2018-04-14T16:53:09.647Z,18.50
2018-04-14T16:55:39.405Z,18.60
2018-04-14T16:58:09.002Z,17.90
2018-04-14T17:00:38.704Z,16.90
2018-04-14T17:03:08.079Z,16.80
2018-04-14T17:05:37.243Z,16.50
2018-04-14T17:08:06.220Z,16.10
2018-04-14T17:10:37.049Z,15.20
2018-04-14T17:13:06.264Z,15.20
2018-04-14T17:15:35.319Z,14.90
2018-04-14T17:18:03.984Z,14.70
2018-04-14T17:20:32.926Z,14.50
2018-04-14T17:23:01.613Z,14.30
2018-04-14T17:25:30.997Z,14.10
2018-04-14T17:27:59.481Z,14.10
2018-04-14T17:30:27.905Z,14.00
2018-04-14T17:32:56.346Z,13.90
2018-04-14T17:35:24.783Z,13.80
2018-04-14T17:37:53.150Z,13.70
2018-04-14T17:40:21.700Z,13.60
2018-04-14T17:42:51.098Z,13.60
2018-04-14T17:45:19.594Z,13.50
2018-04-14T17:47:48.803Z,13.50
2018-04-14T17:50:18.074Z,13.30
2018-04-14T17:52:46.600Z,13.20
2018-04-14T17:55:14.925Z,13.00
2018-04-14T17:57:43.568Z,12.80
2018-04-14T18:00:12.371Z,12.80
2018-04-14T18:02:41.258Z,12.80
2018-04-14T18:05:10.314Z,12.70
2018-04-14T18:07:39.624Z,12.50
2018-04-14T18:10:09.088Z,12.50
2018-04-14T18:12:38.149Z,12.40
2018-04-14T18:15:08.075Z,12.10
2018-04-14T18:17:37.172Z,12.10
2018-04-14T18:20:05.927Z,12.00
2018-04-14T18:22:35.456Z,11.90
2018-04-14T18:25:04.075Z,11.90
2018-04-14T18:27:32.650Z,11.90
2018-04-14T18:30:01.103Z,11.80
2018-04-14T18:32:29.528Z,11.70
2018-04-14T18:34:57.885Z,11.70
2018-04-14T18:37:26.465Z,11.60
2018-04-14T18:39:54.827Z,11.60
2018-04-14T18:42:23.256Z,11.50
2018-04-14T18:44:51.739Z,11.50
2018-04-14T18:47:21.012Z,11.50
2018-04-14T18:49:49.415Z,11.50
2018-04-14T18:52:17.822Z,11.40
2018-04-14T18:54:46.472Z,11.40
2018-04-14T18:57:15.153Z,11.40
2018-04-14T18:59:43.855Z,11.30
2018-04-14T19:02:13.145Z,11.20
2018-04-14T19:04:42.592Z,11.10
2018-04-14T19:07:11.910Z,11.00
2018-04-14T19:09:41.249Z,11.00
2018-04-14T19:12:10.841Z,11.00
2018-04-14T19:14:40.360Z,11.10
2018-04-14T19:17:09.024Z,11.00
2018-04-14T19:19:38.514Z,11.00
2018-04-14T19:22:07.819Z,11.00
2018-04-14T19:24:36.544Z,11.00
2018-04-14T19:27:06.137Z,11.00
2018-04-14T19:29:34.829Z,10.90
2018-04-14T19:32:04.311Z,10.90
2018-04-14T19:34:32.835Z,10.90
2018-04-14T19:37:02.061Z,10.90
2018-04-14T19:39:30.476Z,10.90
2018-04-14T19:41:58.835Z,10.90
2018-04-14T19:44:28.002Z,10.90
2018-04-14T19:46:56.355Z,10.90
2018-04-14T19:49:24.753Z,10.80
2018-04-14T19:51:53.088Z,10.80
2018-04-14T19:54:21.703Z,10.90
2018-04-14T19:56:50.029Z,11.00
2018-04-14T19:59:20.074Z,11.00
2018-04-14T20:01:48.563Z,11.00
2018-04-14T20:04:16.901Z,11.00
2018-04-14T20:06:45.576Z,11.00
2018-04-14T20:09:14.223Z,11.10
2018-04-14T20:11:43.548Z,10.90
2018-04-14T20:14:12.300Z,10.90
2018-04-14T20:16:40.959Z,10.80
2018-04-14T20:19:10.379Z,10.70
2018-04-14T20:21:39.748Z,10.80
2018-04-14T20:24:08.308Z,10.80
2018-04-14T20:26:38.021Z,10.80
2018-04-14T20:29:06.802Z,10.70
2018-04-14T20:31:36.241Z,10.60
2018-04-14T20:34:04.978Z,10.60
2018-04-14T20:36:33.398Z,10.60
2018-04-14T20:39:02.059Z,10.50
2018-04-14T20:41:30.450Z,10.40
2018-04-14T20:43:59.876Z,10.40
2018-04-14T20:46:28.248Z,10.30
2018-04-14T20:48:56.616Z,10.30
2018-04-14T20:51:24.974Z,10.30
2018-04-14T20:53:54.075Z,10.50
2018-04-14T20:56:23.861Z,10.60
2018-04-14T20:58:53.064Z,10.60
2018-04-14T21:01:21.385Z,10.60
2018-04-14T21:03:49.742Z,10.50
2018-04-14T21:06:18.115Z,10.30
2018-04-14T21:08:46.760Z,10.30
2018-04-14T21:11:15.806Z,10.20
2018-04-14T21:13:45.471Z,10.20
2018-04-14T21:16:15.494Z,10.10
2018-04-14T21:18:46.591Z,10.10
2018-04-14T21:21:16.951Z,10.10
2018-04-14T21:23:45.619Z,10.10
2018-04-14T21:26:14.296Z,10.00
2018-04-14T21:28:42.932Z,10.10
2018-04-14T21:31:12.046Z,10.10
2018-04-14T21:33:41.619Z,10.20
2018-04-14T21:36:11.149Z,10.10
2018-04-14T21:38:39.982Z,10.20
2018-04-14T21:41:09.601Z,10.10
2018-04-14T21:43:38.556Z,10.10
2018-04-14T21:46:07.286Z,10.10
2018-04-14T21:48:36.186Z,10.10
2018-04-14T21:51:04.837Z,10.10
2018-04-14T21:53:34.112Z,10.10
2018-04-14T21:56:02.728Z,10.00
2018-04-14T21:58:31.799Z,10.00
2018-04-14T22:01:00.127Z,10.00
2018-04-14T22:03:29.261Z,10.00
2018-04-14T22:05:57.571Z,9.90
2018-04-14T22:08:25.947Z,9.80
2018-04-14T22:10:54.242Z,9.70
2018-04-14T22:13:22.569Z,9.60
2018-04-14T22:15:50.867Z,9.50
2018-04-14T22:18:19.177Z,9.40
2018-04-14T22:20:47.804Z,9.40
2018-04-14T22:23:16.498Z,9.40
2018-04-14T22:25:45.964Z,9.40
2018-04-14T22:28:15.098Z,9.30
2018-04-14T22:30:43.750Z,9.30
2018-04-14T22:33:13.161Z,9.30
2018-04-14T22:35:41.732Z,9.30
2018-04-14T22:38:10.222Z,9.20
2018-04-14T22:40:38.972Z,9.30
2018-04-14T22:43:07.713Z,9.30
2018-04-14T22:45:36.524Z,9.20
2018-04-14T22:48:06.183Z,9.20
2018-04-14T22:50:35.507Z,9.20
2018-04-14T22:53:03.982Z,9.20
2018-04-14T22:55:32.600Z,9.20
2018-04-14T22:58:01.947Z,9.20
2018-04-14T23:00:30.435Z,9.20
2018-04-14T23:02:58.913Z,9.20
2018-04-14T23:05:27.271Z,9.10
2018-04-14T23:07:56.436Z,9.20
2018-04-14T23:10:24.761Z,9.10
2018-04-14T23:12:53.174Z,9.20
2018-04-14T23:15:21.507Z,9.20
2018-04-14T23:17:50.014Z,9.20
2018-04-14T23:20:19.694Z,9.10
2018-04-14T23:22:48.037Z,9.10
2018-04-14T23:25:17.955Z,9.10
2018-04-14T23:27:47.824Z,9.00
2018-04-14T23:30:16.387Z,9.00
2018-04-14T23:32:44.984Z,8.90
2018-04-14T23:35:13.680Z,8.90
2018-04-14T23:37:42.392Z,8.80
2018-04-14T23:40:10.950Z,8.70
2018-04-14T23:42:40.313Z,8.80
2018-04-14T23:45:09.114Z,8.70
2018-04-14T23:47:37.841Z,8.80
2018-04-14T23:50:07.760Z,8.70
2018-04-14T23:52:37.143Z,8.70
2018-04-14T23:55:07.819Z,8.60
2018-04-14T23:57:36.997Z,8.60
